| time (UTC) | temp F | wind direction | speed MPH | gust MPH | rain 1hr in | rain 24hr in | rain mn in | humidity % | barometer mb |
| 20260510220015 | 59 | 321 | 0.0 | 0.0 | 0.00 | 0.24 | 0.09 | 90 | 1013.8 |
| 20260510214526 | 59 | 321 | 0.0 | 0.0 | 0.09 | 0.27 | 0.09 | 89 | 1013.7 |
| 20260510213023 | 59 | 321 | 0.0 | 0.0 | 0.09 | 0.29 | 0.09 | 89 | 1013.5 |
| 20260510211533 | 59 | 321 | 0.0 | 0.0 | 0.09 | 0.31 | 0.09 | 88 | 1013.6 |
| 20260510210028 | 59 | 331 | 0.0 | 10.0 | 0.09 | 0.31 | 0.09 | 84 | 1013.3 |
| 20260510204524 | 63 | 15 | 0.0 | 3.0 | 0.00 | 0.23 | 0.00 | 72 | 1013.1 |
| 20260510203018 | 63 | 14 | 0.0 | 10.0 | 0.00 | 0.24 | 0.00 | 74 | 1013.3 |
| 20260510201524 | 64 | 35 | 2.0 | 13.0 | 0.00 | 0.26 | 0.00 | 75 | 1013.5 |
| 20260510200025 | 67 | 223 | 0.0 | 0.0 | 0.00 | 0.29 | 0.00 | 69 | 1012.8 |
| 20260510194527 | 68 | 155 | 0.0 | 0.0 | 0.00 | 0.33 | 0.00 | 71 | 1013.2 |
| 20260510193021 | 67 | 193 | 0.0 | 0.0 | 0.00 | 0.36 | 0.00 | 71 | 1013.2 |
| 20260510191533 | 68 | 230 | 0.0 | 5.0 | 0.00 | 0.45 | 0.00 | 70 | 1013.1 |
| 20260510190035 | 68 | 257 | 0.0 | 3.0 | 0.00 | 0.74 | 0.00 | 69 | 1013.1 |
| 20260510184528 | 69 | 205 | 0.0 | 3.0 | 0.00 | 0.85 | 0.00 | 68 | 1013.2 |
| 20260510183028 | 69 | 146 | 0.0 | 7.0 | 0.00 | 0.86 | 0.00 | 67 | 1013.2 |
| 20260510181516 | 70 | 263 | 0.0 | 4.0 | 0.00 | 0.86 | 0.00 | 66 | 1013.2 |
| 20260510180023 | 70 | 249 | 0.0 | 4.0 | 0.00 | 0.86 | 0.00 | 68 | 1013.2 |
| 20260510174526 | 70 | 209 | 0.0 | 7.0 | 0.00 | 0.86 | 0.00 | 66 | 1013.5 |
| 20260510173027 | 69 | 237 | 0.0 | 5.0 | 0.00 | 0.86 | 0.00 | 67 | 1013.1 |
| 20260510171538 | 68 | 348 | 0.0 | 6.0 | 0.00 | 0.86 | 0.00 | 69 | 1013.0 |
| 20260510170021 | 67 | 215 | 0.0 | 4.0 | 0.00 | 0.86 | 0.00 | 72 | 1013.3 |
| 20260510164522 | 67 | 176 | 0.0 | 6.0 | 0.00 | 0.86 | 0.00 | 73 | 1013.4 |
| 20260510163026 | 67 | 237 | 0.0 | 4.0 | 0.00 | 0.86 | 0.00 | 75 | 1013.4 |
| 20260510161528 | 65 | 209 | 0.0 | 0.0 | 0.00 | 0.86 | 0.00 | 78 | 1013.5 |
| 20260510160032 | 63 | 226 | 0.0 | 0.0 | 0.00 | 0.86 | 0.00 | 81 | 1013.4 |
| 20260510154530 | 64 | 52 | 0.0 | 0.0 | 0.00 | 0.86 | 0.00 | 77 | 1013.6 |
| 20260510153036 | 63 | 246 | 0.0 | 5.0 | 0.00 | 0.86 | 0.00 | 80 | 1013.7 |
| 20260510151528 | 63 | 244 | 0.0 | 0.0 | 0.00 | 0.86 | 0.00 | 80 | 1013.7 |
| 20260510150027 | 62 | 223 | 0.0 | 4.0 | 0.00 | 0.86 | 0.00 | 83 | 1013.7 |
| 20260510144530 | 61 | 163 | 0.0 | 1.0 | 0.00 | 0.86 | 0.00 | 86 | 1013.6 |
| 20260510143024 | 59 | 257 | 0.0 | 0.0 | 0.00 | 0.86 | 0.00 | 91 | 1013.4 |
| 20260510141526 | 57 | 232 | 0.0 | 0.0 | 0.00 | 0.86 | 0.00 | 93 | 1013.6 |
| 20260510140008 | 56 | 226 | 0.0 | 0.0 | 0.00 | 0.86 | 0.00 | 94 | 1013.7 |
| 20260510134514 | 54 | 223 | 0.0 | 0.0 | 0.00 | 0.86 | 0.00 | 94 | 1013.5 |
| 20260510133018 | 54 | 223 | 0.0 | 0.0 | 0.00 | 0.86 | 0.00 | 94 | 1013.3 |
| 20260510131521 | 54 | 223 | 0.0 | 0.0 | 0.00 | 0.86 | 0.00 | 94 | 1013.5 |
| 20260510130027 | 53 | 223 | 0.0 | 0.0 | 0.00 | 0.86 | 0.00 | 94 | 1013.5 |
| 20260510124521 | 53 | 223 | 0.0 | 0.0 | 0.00 | 0.86 | 0.00 | 94 | 1013.4 |
| 20260510123017 | 53 | 223 | 0.0 | 0.0 | 0.00 | 0.86 | 0.00 | 95 | 1013.2 |
| 20260510121520 | 53 | 223 | 0.0 | 0.0 | 0.00 | 0.86 | 0.00 | 95 | 1013.2 |
| 20260510120026 | 52 | 222 | 0.0 | 0.0 | 0.00 | 0.86 | 0.00 | 95 | 1012.8 |
| 20260510114528 | 51 | 222 | 0.0 | 0.0 | 0.00 | 0.86 | 0.00 | 95 | 1012.7 |
| 20260510113011 | 51 | 222 | 0.0 | 0.0 | 0.00 | 0.86 | 0.00 | 94 | 1012.6 |
| 20260510111519 | 51 | 223 | 0.0 | 0.0 | 0.00 | 0.86 | 0.00 | 94 | 1012.5 |
| 20260510110038 | 50 | 223 | 0.0 | 0.0 | 0.00 | 0.86 | 0.00 | 94 | 1012.5 |
| 20260510104531 | 50 | 223 | 0.0 | 0.0 | 0.00 | 0.86 | 0.00 | 94 | 1012.6 |
| 20260510103030 | 50 | 223 | 0.0 | 0.0 | 0.00 | 0.86 | 0.00 | 94 | 1012.4 |
| 20260510101514 | 50 | 233 | 0.0 | 0.0 | 0.00 | 0.86 | 0.00 | 94 | 1012.1 |
| 20260510100019 | 50 | 325 | 0.0 | 0.0 | 0.00 | 0.86 | 0.00 | 94 | 1012.0 |
| 20260510094535 | 50 | 325 | 0.0 | 0.0 | 0.00 | 0.86 | 0.00 | 94 | 1012.4 |
| 20260510093027 | 50 | 325 | 0.0 | 0.0 | 0.00 | 0.86 | 0.00 | 94 | 1012.4 |
| 20260510091527 | 50 | 325 | 0.0 | 0.0 | 0.00 | 0.86 | 0.00 | 94 | 1012.2 |
| 20260510090028 | 50 | 325 | 0.0 | 0.0 | 0.00 | 0.86 | 0.00 | 94 | 1012.5 |
| 20260510084524 | 50 | 325 | 0.0 | 0.0 | 0.00 | 0.86 | 0.00 | 94 | 1012.5 |
| 20260510083004 | 50 | 325 | 0.0 | 0.0 | 0.00 | 0.87 | 0.00 | 94 | 1012.5 |
| 20260510081508 | 51 | 324 | 0.0 | 0.0 | 0.00 | 0.87 | 0.00 | 94 | 1012.5 |
| 20260510080032 | 51 | 203 | 0.0 | 0.0 | 0.00 | 0.88 | 0.00 | 94 | 1012.2 |
| 20260510074519 | 51 | 202 | 0.0 | 0.0 | 0.00 | 0.88 | 0.00 | 94 | 1012.0 |
| 20260510073037 | 51 | 202 | 0.0 | 0.0 | 0.00 | 0.88 | 0.00 | 94 | 1012.0 |
| 20260510071508 | 51 | 202 | 0.0 | 0.0 | 0.00 | 0.88 | 0.00 | 94 | 1012.0 |
| 20260510070009 | 51 | 202 | 0.0 | 0.0 | 0.00 | 0.88 | 0.00 | 94 | 1012.1 |
| 20260510064515 | 51 | 203 | 0.0 | 0.0 | 0.00 | 0.88 | 0.00 | 94 | 1012.1 |
| 20260510063020 | 51 | 203 | 0.0 | 0.0 | 0.00 | 0.88 | 0.00 | 94 | 1012.2 |
| 20260510061526 | 51 | 203 | 0.0 | 0.0 | 0.00 | 0.88 | 0.00 | 94 | 1011.8 |
| 20260510060018 | 51 | 203 | 0.0 | 0.0 | 0.00 | 0.88 | 0.00 | 94 | 1011.6 |
| 20260510054511 | 51 | 203 | 0.0 | 0.0 | 0.00 | 0.88 | 0.00 | 94 | 1011.8 |
| 20260510053015 | 51 | 203 | 0.0 | 0.0 | 0.00 | 0.88 | 0.00 | 94 | 1011.9 |
| 20260510051517 | 51 | 203 | 0.0 | 0.0 | 0.00 | 0.88 | 0.00 | 94 | 1012.0 |
| 20260510050026 | 51 | 203 | 0.0 | 0.0 | 0.00 | 0.88 | 0.00 | 94 | 1011.9 |
| 20260510044505 | 51 | 203 | 0.0 | 0.0 | 0.00 | 0.88 | 0.00 | 94 | 1011.9 |
| 20260510043012 | 51 | 203 | 0.0 | 0.0 | 0.00 | 0.88 | 0.00 | 94 | 1011.9 |
| 20260510041522 | 51 | 203 | 0.0 | 0.0 | 0.00 | 0.88 | 0.00 | 94 | 1011.9 |
| 20260510040023 | 52 | 203 | 0.0 | 0.0 | 0.00 | 0.88 | 0.00 | 94 | 1011.5 |
| 20260510034527 | 52 | 203 | 0.0 | 0.0 | 0.00 | 0.88 | 0.88 | 94 | 1011.6 |
| 20260510033042 | 52 | 203 | 0.0 | 0.0 | 0.00 | 0.88 | 0.88 | 93 | 1011.6 |
| 20260510031517 | 52 | 202 | 0.0 | 0.0 | 0.00 | 0.88 | 0.88 | 93 | 1011.9 |
| 20260510030017 | 52 | 202 | 0.0 | 0.0 | 0.00 | 0.88 | 0.88 | 93 | 1011.9 |
| 20260510024526 | 52 | 202 | 0.0 | 0.0 | 0.00 | 0.88 | 0.88 | 93 | 1011.8 |
| 20260510023029 | 52 | 202 | 0.0 | 0.0 | 0.00 | 0.88 | 0.88 | 93 | 1011.8 |
| 20260510021606 | 52 | 202 | 0.0 | 0.0 | 0.00 | 0.88 | 0.88 | 93 | 1011.6 |
| 20260510020016 | 52 | 200 | 0.0 | 0.0 | 0.00 | 0.88 | 0.88 | 93 | 1011.6 |
| 20260510014533 | 52 | 200 | 0.0 | 0.0 | 0.00 | 0.88 | 0.88 | 93 | 1011.8 |
| 20260510013028 | 52 | 200 | 0.0 | 0.0 | 0.00 | 0.88 | 0.88 | 93 | 1011.8 |
| 20260510011526 | 52 | 200 | 0.0 | 0.0 | 0.00 | 0.88 | 0.88 | 93 | 1011.5 |
| 20260510010037 | 53 | 200 | 0.0 | 0.0 | 0.00 | 0.88 | 0.88 | 93 | 1011.3 |
| 20260510004518 | 53 | 200 | 0.0 | 0.0 | 0.00 | 0.88 | 0.88 | 93 | 1011.2 |
| 20260510003025 | 53 | 199 | 0.0 | 0.0 | 0.00 | 0.88 | 0.88 | 93 | 1011.1 |
| 20260510001524 | 53 | 200 | 0.0 | 0.0 | 0.00 | 0.88 | 0.88 | 93 | 1011.0 |
| 20260510000028 | 53 | 200 | 0.0 | 0.0 | 0.00 | 0.88 | 0.88 | 93 | 1011.1 |
| 20260509234528 | 53 | 200 | 0.0 | 0.0 | 0.03 | 0.88 | 0.88 | 93 | 1011.1 |
| 20260509233018 | 53 | 200 | 0.0 | 0.0 | 0.07 | 0.88 | 0.88 | 92 | 1011.2 |
| 20260509231520 | 53 | 200 | 0.0 | 0.0 | 0.12 | 0.88 | 0.88 | 92 | 1011.2 |
| 20260509230034 | 53 | 200 | 0.0 | 0.0 | 0.15 | 0.88 | 0.88 | 92 | 1011.4 |
| 20260509224530 | 53 | 200 | 0.0 | 0.0 | 0.15 | 0.85 | 0.85 | 92 | 1011.5 |
| 20260509223030 | 53 | 200 | 0.0 | 0.0 | 0.13 | 0.81 | 0.81 | 92 | 1011.8 |
| 20260509221529 | 53 | 199 | 0.0 | 0.0 | 0.10 | 0.76 | 0.76 | 92 | 1011.7 |